Gibson, Tennessee
Current Conditions -  °F | °C
As of 1:53 PM on Thursday 30 Oct 2014 (Local Time) from KMKL Reporting Station
Clear Clear  
Wind Chill: 65°   Ceiling: Unl
Heat Index: 65°   Visibility: 10mi
Dew Point: 36°   Wind: 6mph
Humidity: 34%   Direction: 360°N
Pressure: 30.1"   Gusts: NA
Location:  35.88°N, 88.85°W
Report Text: KMKL 301853Z 36005KT 10SM CLR 18/02 A3010 RMK AO2 SLP191 T01830022
Loading
Personal Weather Stations






























Interactive Weather Map
Tropical Storm Tracking
New forecast layout! Learn more

10-Day Weather Forecast

Advertisements
Track Severe Weather on mobile